createdAt,value
2018-10-02T00:00:08.044Z,23
2018-10-02T00:02:07.443Z,23
2018-10-02T00:04:05.138Z,23
2018-10-02T00:06:09.947Z,23
2018-10-02T00:08:04.754Z,23
2018-10-02T00:10:05.530Z,23
2018-10-02T00:12:10.272Z,23
2018-10-02T00:14:05.499Z,23
2018-10-02T00:16:05.203Z,23
2018-10-02T00:18:05.120Z,23
2018-10-02T00:20:07.388Z,23
2018-10-02T00:22:07.628Z,23
2018-10-02T00:24:07.858Z,23
2018-10-02T00:26:08.073Z,23
2018-10-02T00:28:09.807Z,23
2018-10-02T00:30:05.515Z,23
2018-10-02T00:32:10.391Z,23
2018-10-02T00:34:07.797Z,23
2018-10-02T00:36:05.499Z,23
2018-10-02T00:38:10.287Z,23
2018-10-02T00:40:05.065Z,23
2018-10-02T00:42:04.978Z,23
2018-10-02T00:44:07.190Z,23
2018-10-02T00:46:04.889Z,23
2018-10-02T00:48:05.605Z,23
2018-10-02T00:50:07.806Z,23
2018-10-02T00:52:08.015Z,23
2018-10-02T00:54:05.285Z,23
2018-10-02T00:56:08.103Z,23
2018-10-02T00:58:04.797Z,23
2018-10-02T01:00:05.508Z,23
2018-10-02T01:02:05.228Z,22.9
2018-10-02T01:04:04.901Z,23
2018-10-02T01:06:05.633Z,23
2018-10-02T01:08:05.325Z,23
2018-10-02T01:10:05.608Z,22.9
2018-10-02T01:12:04.817Z,23
2018-10-02T01:14:10.582Z,22.9
2018-10-02T01:16:04.863Z,22.9
2018-10-02T01:18:05.277Z,23
2018-10-02T01:20:05.020Z,23
2018-10-02T01:22:05.268Z,23
2018-10-02T01:24:07.455Z,23
2018-10-02T01:26:07.651Z,23
2018-10-02T01:28:07.909Z,22.9
2018-10-02T01:30:05.620Z,22.9
2018-10-02T01:32:05.303Z,22.9
2018-10-02T01:34:05.014Z,23
2018-10-02T01:36:04.701Z,23
2018-10-02T01:38:07.940Z,22.9
2018-10-02T01:40:04.904Z,23
2018-10-02T01:42:05.601Z,22.9
2018-10-02T01:44:05.468Z,22.9
2018-10-02T01:46:07.285Z,22.9
2018-10-02T01:48:05.024Z,22.9
2018-10-02T01:50:07.280Z,22.9
2018-10-02T01:52:12.616Z,22.9
2018-10-02T01:54:05.320Z,22.9
2018-10-02T01:56:05.046Z,22.9
2018-10-02T01:58:05.299Z,22.9
2018-10-02T02:00:05.058Z,22.9
2018-10-02T02:02:05.282Z,22.9
2018-10-02T02:04:05.013Z,22.9
2018-10-02T02:06:07.251Z,22.9
2018-10-02T02:08:05.522Z,22.9
2018-10-02T02:10:07.349Z,22.9
2018-10-02T02:12:05.628Z,22.9
2018-10-02T02:14:07.859Z,22.9
2018-10-02T02:16:05.572Z,22.9
2018-10-02T02:18:10.544Z,22.9
2018-10-02T02:20:05.212Z,22.9
2018-10-02T02:22:04.925Z,22.9
2018-10-02T02:24:04.588Z,22.9
2018-10-02T02:26:10.305Z,22.9
2018-10-02T02:28:05.533Z,22.9
2018-10-02T02:30:05.258Z,22.9
2018-10-02T02:32:04.940Z,22.9
2018-10-02T02:34:04.728Z,22.9
2018-10-02T02:36:18.145Z,22.8
2018-10-02T02:38:04.919Z,22.9
2018-10-02T02:40:05.698Z,22.9
2018-10-02T02:42:05.435Z,22.9
2018-10-02T02:44:05.141Z,22.9
2018-10-02T02:46:04.854Z,22.9
2018-10-02T02:48:05.590Z,22.9
2018-10-02T02:50:12.911Z,22.8
2018-10-02T02:52:04.605Z,22.9
2018-10-02T02:54:05.280Z,22.9
2018-10-02T02:56:04.965Z,22.9
2018-10-02T02:58:04.634Z,22.8
2018-10-02T03:00:04.929Z,22.9
2018-10-02T03:02:04.702Z,22.8
2018-10-02T03:04:05.543Z,22.9
2018-10-02T03:06:04.841Z,22.9
2018-10-02T03:08:05.125Z,22.9
2018-10-02T03:10:05.352Z,22.8
2018-10-02T03:12:05.052Z,22.9
2018-10-02T03:14:04.763Z,22.8
2018-10-02T03:16:10.614Z,22.9
2018-10-02T03:18:05.556Z,22.8
2018-10-02T03:20:05.400Z,22.8
2018-10-02T03:22:04.635Z,22.8
2018-10-02T03:24:05.344Z,22.9
2018-10-02T03:26:10.126Z,22.8
2018-10-02T03:28:04.814Z,22.8
2018-10-02T03:30:10.619Z,22.8
2018-10-02T03:32:05.479Z,22.8
2018-10-02T03:34:04.776Z,22.8
2018-10-02T03:36:08.026Z,22.8
2018-10-02T03:38:04.747Z,22.8
2018-10-02T03:40:08.162Z,22.8
2018-10-02T03:42:05.273Z,22.8
2018-10-02T03:44:04.995Z,22.8
2018-10-02T03:46:07.220Z,22.8
2018-10-02T03:48:10.019Z,22.7
2018-10-02T03:50:04.734Z,22.8
2018-10-02T03:52:07.992Z,22.8
2018-10-02T03:54:04.725Z,22.8
2018-10-02T03:56:05.413Z,22.8
2018-10-02T03:58:05.090Z,22.7
2018-10-02T04:00:04.814Z,22.8
2018-10-02T04:02:05.527Z,22.7
2018-10-02T04:04:05.268Z,22.8
2018-10-02T04:06:05.005Z,22.8
2018-10-02T04:08:04.688Z,22.7
2018-10-02T04:10:07.914Z,22.8
2018-10-02T04:12:04.697Z,22.8
2018-10-02T04:14:05.503Z,22.8
2018-10-02T04:16:10.246Z,22.7
2018-10-02T04:18:05.143Z,22.7
2018-10-02T04:20:04.865Z,22.8
2018-10-02T04:22:08.091Z,22.7
2018-10-02T04:24:04.783Z,22.7
2018-10-02T04:26:05.466Z,22.8
2018-10-02T04:28:05.202Z,22.8
2018-10-02T04:30:07.930Z,22.8
2018-10-02T04:32:04.723Z,22.8
2018-10-02T04:34:08.046Z,22.7
2018-10-02T04:36:05.198Z,22.7
2018-10-02T04:38:08.156Z,22.7
2018-10-02T04:40:15.587Z,22.7
2018-10-02T04:42:07.435Z,22.8
2018-10-02T04:44:05.189Z,22.8
2018-10-02T04:46:09.986Z,22.8
2018-10-02T04:48:04.697Z,22.8
2018-10-02T04:50:05.400Z,22.8
2018-10-02T04:52:05.135Z,22.8
2018-10-02T04:54:04.883Z,22.8
2018-10-02T04:56:05.763Z,22.8
2018-10-02T04:58:04.941Z,22.7
2018-10-02T05:00:07.150Z,22.7
2018-10-02T05:02:07.536Z,22.8
2018-10-02T05:04:05.376Z,22.7
2018-10-02T05:06:05.082Z,22.8
2018-10-02T05:08:04.772Z,22.8
2018-10-02T05:10:05.519Z,22.7
2018-10-02T05:12:05.198Z,22.8
2018-10-02T05:14:07.484Z,22.8
2018-10-02T05:16:07.746Z,22.8
2018-10-02T05:18:04.657Z,22.8
2018-10-02T05:20:07.858Z,22.8
2018-10-02T05:22:05.046Z,22.9
2018-10-02T05:24:07.285Z,22.9
2018-10-02T05:26:05.072Z,22.9
2018-10-02T05:28:04.794Z,22.9
2018-10-02T05:30:07.540Z,22.9
2018-10-02T05:32:05.291Z,22.8
2018-10-02T05:34:10.062Z,22.8
2018-10-02T05:36:04.762Z,22.8
2018-10-02T05:38:08.117Z,22.8
2018-10-02T05:40:07.367Z,22.9
2018-10-02T05:42:05.185Z,22.8
2018-10-02T05:44:05.439Z,22.8
2018-10-02T05:46:04.652Z,22.8
2018-10-02T05:48:12.965Z,22.8
2018-10-02T05:50:04.651Z,22.7
2018-10-02T05:52:04.857Z,22.7
2018-10-02T05:54:05.530Z,22.7
2018-10-02T05:56:05.186Z,22.7
2018-10-02T05:58:04.868Z,22.6
2018-10-02T06:00:08.147Z,22.7
2018-10-02T06:02:04.894Z,22.7
2018-10-02T06:04:07.861Z,22.7
2018-10-02T06:06:04.624Z,22.7
2018-10-02T06:08:07.856Z,22.7
2018-10-02T06:10:07.596Z,22.7
2018-10-02T06:12:05.351Z,22.7
2018-10-02T06:14:05.091Z,22.7
2018-10-02T06:16:04.790Z,22.7
2018-10-02T06:18:04.765Z,22.7
2018-10-02T06:20:08.161Z,22.7
2018-10-02T06:22:04.845Z,22.7
2018-10-02T06:24:08.034Z,22.7
2018-10-02T06:26:04.780Z,22.7
2018-10-02T06:28:05.056Z,22.7
2018-10-02T06:30:04.723Z,22.7
2018-10-02T06:32:05.429Z,22.7
2018-10-02T06:34:04.611Z,22.7
2018-10-02T06:36:07.842Z,22.7
2018-10-02T06:38:08.308Z,22.7
2018-10-02T06:40:08.013Z,22.7
2018-10-02T06:42:04.734Z,22.7
2018-10-02T06:44:05.438Z,22.7
2018-10-02T06:46:12.250Z,22.7
2018-10-02T06:48:04.948Z,22.7
2018-10-02T06:50:04.660Z,22.7
2018-10-02T06:52:05.634Z,22.6
2018-10-02T06:54:05.509Z,22.7
2018-10-02T06:56:05.191Z,22.6
2018-10-02T06:58:04.875Z,22.6
2018-10-02T07:00:05.657Z,22.6
2018-10-02T07:02:07.873Z,22.6
2018-10-02T07:04:05.641Z,22.6
2018-10-02T07:06:05.398Z,22.7
2018-10-02T07:08:05.077Z,22.6
2018-10-02T07:10:05.004Z,22.6
2018-10-02T07:12:07.261Z,22.6
2018-10-02T07:14:07.479Z,22.5
2018-10-02T07:16:05.280Z,22.5
2018-10-02T07:18:07.816Z,22.5
2018-10-02T07:20:10.627Z,22.5
2018-10-02T07:22:05.361Z,22.5
2018-10-02T07:24:05.124Z,22.5
2018-10-02T07:26:04.797Z,22.5
2018-10-02T07:28:05.546Z,22.5
2018-10-02T07:30:04.787Z,22.5
2018-10-02T07:32:05.558Z,22.5
2018-10-02T07:34:05.324Z,22.5
2018-10-02T07:36:05.016Z,22.5
2018-10-02T07:38:05.220Z,22.5
2018-10-02T07:40:04.898Z,22.5
2018-10-02T07:42:05.632Z,22.5
2018-10-02T07:44:04.906Z,22.5
2018-10-02T07:46:08.104Z,22.5
2018-10-02T07:48:05.443Z,22.5
2018-10-02T07:50:07.397Z,22.5
2018-10-02T07:52:05.052Z,22.4
2018-10-02T07:54:05.003Z,22.5
2018-10-02T07:56:05.167Z,22.5
2018-10-02T07:58:04.813Z,22.5
2018-10-02T08:00:05.130Z,22.5
2018-10-02T08:02:05.310Z,22.5
2018-10-02T08:04:05.034Z,22.5
2018-10-02T08:06:04.834Z,22.5
2018-10-02T08:08:05.055Z,22.5
2018-10-02T08:10:04.757Z,22.4
2018-10-02T08:12:05.700Z,22.4
2018-10-02T08:14:04.923Z,22.4
2018-10-02T08:16:05.268Z,22.4
2018-10-02T08:18:05.282Z,22.4
2018-10-02T08:20:05.416Z,22.4
2018-10-02T08:22:07.291Z,22.4
2018-10-02T08:24:07.584Z,22.4
2018-10-02T08:26:05.259Z,22.4
2018-10-02T08:28:07.987Z,22.4
2018-10-02T08:30:05.512Z,22.4
2018-10-02T08:32:04.992Z,22.4
2018-10-02T08:34:04.712Z,22.4
2018-10-02T08:36:05.590Z,22.4
2018-10-02T08:38:05.434Z,22.4
2018-10-02T08:40:04.645Z,22.4
2018-10-02T08:42:05.334Z,22.4
2018-10-02T08:44:05.035Z,22.4
2018-10-02T08:46:04.713Z,22.4
2018-10-02T08:48:05.507Z,22.4
2018-10-02T08:50:05.200Z,22.4
2018-10-02T08:52:05.102Z,22.4
2018-10-02T08:54:04.936Z,22.4
2018-10-02T08:56:05.251Z,22.4
2018-10-02T08:58:09.984Z,22.4
2018-10-02T09:00:04.670Z,22.4
2018-10-02T09:02:05.384Z,22.4
2018-10-02T09:04:07.193Z,22.4
2018-10-02T09:06:04.879Z,22.4
2018-10-02T09:08:05.587Z,22.4
2018-10-02T09:10:04.836Z,22.4
2018-10-02T09:12:05.520Z,22.4
2018-10-02T09:14:10.207Z,22.3
2018-10-02T09:16:05.166Z,22.3
2018-10-02T09:18:04.826Z,22.3
2018-10-02T09:20:05.611Z,22.3
2018-10-02T09:22:04.883Z,22.4
2018-10-02T09:24:05.118Z,22.3
2018-10-02T09:26:07.978Z,22.4
2018-10-02T09:28:05.445Z,22.4
2018-10-02T09:30:04.760Z,22.4
2018-10-02T09:32:05.542Z,22.3
2018-10-02T09:34:05.417Z,22.3
2018-10-02T09:36:04.715Z,22.3
2018-10-02T09:38:05.434Z,22.3
2018-10-02T09:40:07.751Z,22.3
2018-10-02T09:42:04.699Z,22.3
2018-10-02T09:44:08.007Z,22.3
2018-10-02T09:46:07.229Z,22.3
2018-10-02T09:48:08.222Z,22.4
2018-10-02T09:50:04.974Z,22.3
2018-10-02T09:52:05.179Z,22.4
2018-10-02T09:54:04.940Z,22.4
2018-10-02T09:56:04.795Z,22.3
2018-10-02T09:58:05.537Z,22.3
2018-10-02T10:00:07.806Z,22.3
2018-10-02T10:02:05.516Z,22.3
2018-10-02T10:04:05.208Z,22.3
2018-10-02T10:06:08.116Z,22.3
2018-10-02T10:08:10.427Z,22.3
2018-10-02T10:10:10.301Z,22.3
2018-10-02T10:12:05.277Z,22.3
2018-10-02T10:14:07.511Z,22.3
2018-10-02T10:16:05.321Z,22.3
2018-10-02T10:18:05.216Z,22.3
2018-10-02T10:20:04.920Z,22.3
2018-10-02T10:22:04.677Z,22.3
2018-10-02T10:24:04.919Z,22.3
2018-10-02T10:26:07.193Z,22.3
2018-10-02T10:28:04.924Z,22.3
2018-10-02T10:30:05.577Z,22.3
2018-10-02T10:32:07.781Z,22.3
2018-10-02T10:34:05.467Z,22.3
2018-10-02T10:36:05.221Z,22.3
2018-10-02T10:38:04.922Z,22.3
2018-10-02T10:40:05.155Z,22.3
2018-10-02T10:42:05.440Z,22.3
2018-10-02T10:44:10.199Z,22.3
2018-10-02T10:46:05.009Z,22.3
2018-10-02T10:48:04.697Z,22.3
2018-10-02T10:50:07.909Z,22.3
2018-10-02T10:52:08.239Z,22.3
2018-10-02T10:54:05.607Z,22.3
2018-10-02T10:56:04.820Z,22.3
2018-10-02T10:58:05.542Z,22.3
2018-10-02T11:00:05.272Z,22.3
2018-10-02T11:02:05.133Z,22.3
2018-10-02T11:04:05.638Z,22.3
2018-10-02T11:06:04.905Z,22.3
2018-10-02T11:08:05.606Z,22.3
2018-10-02T11:10:07.858Z,22.3
2018-10-02T11:12:04.808Z,22.3
2018-10-02T11:14:08.072Z,22.3
2018-10-02T11:16:04.773Z,22.3
2018-10-02T11:18:04.715Z,22.3
2018-10-02T11:20:10.528Z,22.4
2018-10-02T11:22:05.168Z,22.4
2018-10-02T11:24:07.500Z,22.4
2018-10-02T11:26:07.613Z,22.4
2018-10-02T11:28:07.887Z,22.4
2018-10-02T11:30:05.615Z,22.4
2018-10-02T11:32:04.832Z,22.4
2018-10-02T11:34:05.535Z,22.4
2018-10-02T11:36:05.482Z,22.4
2018-10-02T11:38:05.196Z,22.4
2018-10-02T11:40:05.536Z,22.4
2018-10-02T11:42:05.316Z,22.4
2018-10-02T11:44:05.548Z,22.4
2018-10-02T11:46:05.005Z,22.4
2018-10-02T11:48:07.231Z,22.4
2018-10-02T11:50:07.509Z,22.4
2018-10-02T11:52:05.222Z,22.4
2018-10-02T11:54:07.576Z,22.4
2018-10-02T11:56:05.281Z,22.4
2018-10-02T11:58:04.692Z,22.4
2018-10-02T12:00:04.819Z,22.4
2018-10-02T12:02:08.036Z,22.4
2018-10-02T12:04:04.808Z,22.4
2018-10-02T12:06:05.569Z,22.4
2018-10-02T12:08:05.351Z,22.4
2018-10-02T12:10:07.632Z,22.4
2018-10-02T12:12:05.430Z,22.4
2018-10-02T12:14:07.818Z,22.4
2018-10-02T12:16:05.564Z,22.4
2018-10-02T12:18:05.503Z,22.4
2018-10-02T12:20:05.241Z,22.4
2018-10-02T12:22:04.966Z,22.3
2018-10-02T12:24:07.408Z,22.3
2018-10-02T12:26:10.483Z,22.3
2018-10-02T12:28:10.370Z,22.3
2018-10-02T12:30:05.130Z,22.3
2018-10-02T12:32:04.829Z,22.3
2018-10-02T12:34:05.544Z,22.4
2018-10-02T12:36:04.874Z,22.3
2018-10-02T12:38:04.698Z,22.3
2018-10-02T12:40:07.965Z,22.4
2018-10-02T12:42:10.306Z,22.3
2018-10-02T12:44:07.596Z,22.4
2018-10-02T12:46:05.318Z,22.4
2018-10-02T12:48:07.734Z,22.4
2018-10-02T12:50:05.422Z,22.4
2018-10-02T12:52:07.669Z,22.3
2018-10-02T12:54:08.143Z,22.3
2018-10-02T12:56:05.534Z,22.3
2018-10-02T12:58:05.215Z,22.3
2018-10-02T13:00:09.969Z,22.3
2018-10-02T13:02:04.654Z,22.3
2018-10-02T13:04:10.385Z,22.4
2018-10-02T13:06:07.618Z,22.4
2018-10-02T13:08:05.405Z,22.4
2018-10-02T13:10:07.705Z,22.3
2018-10-02T13:12:05.059Z,22.3
2018-10-02T13:14:04.796Z,22.3
2018-10-02T13:16:05.489Z,22.4
2018-10-02T13:18:05.388Z,22.3
2018-10-02T13:20:05.700Z,22.4
2018-10-02T13:22:04.948Z,22.4
2018-10-02T13:24:04.791Z,22.4
2018-10-02T13:26:05.492Z,22.4
2018-10-02T13:28:06.284Z,22.3
2018-10-02T13:30:05.485Z,22.3
2018-10-02T13:32:05.394Z,22.3
2018-10-02T13:34:04.880Z,22.3
2018-10-02T13:36:07.816Z,22.3
2018-10-02T13:38:05.807Z,22.3
2018-10-02T13:40:05.427Z,22.3
2018-10-02T13:42:05.209Z,22.3
2018-10-02T13:44:12.535Z,22.3
2018-10-02T13:46:05.210Z,22.3
2018-10-02T13:48:04.943Z,22.3
2018-10-02T13:50:04.693Z,22.3
2018-10-02T13:52:05.379Z,22.3
2018-10-02T13:54:07.634Z,22.3
2018-10-02T13:56:07.835Z,22.3
2018-10-02T13:58:05.510Z,22.3
2018-10-02T14:00:05.215Z,22.4
2018-10-02T14:02:05.442Z,22.3
2018-10-02T14:04:07.857Z,22.3
2018-10-02T14:06:05.519Z,22.3
2018-10-02T14:08:09.801Z,22.3
2018-10-02T14:10:15.055Z,22.3
2018-10-02T14:12:07.368Z,22.3
2018-10-02T14:14:05.101Z,22.3
2018-10-02T14:16:05.034Z,22.3
2018-10-02T14:18:05.047Z,22.3
2018-10-02T14:20:04.740Z,22.3
2018-10-02T14:22:05.441Z,22.3
2018-10-02T14:24:07.687Z,22.3
2018-10-02T14:26:05.429Z,22.3
2018-10-02T14:28:05.139Z,22.3
2018-10-02T14:30:07.546Z,22.3
2018-10-02T14:32:05.213Z,22.3
2018-10-02T14:34:04.932Z,22.3
2018-10-02T14:36:04.646Z,22.3
2018-10-02T14:38:05.361Z,22.3
2018-10-02T14:40:05.096Z,22.4
2018-10-02T14:42:05.048Z,22.3
2018-10-02T14:44:04.843Z,22.3
2018-10-02T14:46:10.621Z,22.3
2018-10-02T14:48:04.904Z,22.3
2018-10-02T14:50:08.196Z,22.3
2018-10-02T14:52:04.937Z,22.3
2018-10-02T14:54:05.241Z,22.3
2018-10-02T14:56:10.050Z,22.3
2018-10-02T14:58:04.749Z,22.3
2018-10-02T15:00:07.647Z,22.3
2018-10-02T15:02:05.326Z,22.3
2018-10-02T15:04:15.214Z,22.3
2018-10-02T15:06:04.947Z,22.3
2018-10-02T15:08:04.673Z,22.3
2018-10-02T15:10:07.919Z,22.3
2018-10-02T15:12:04.676Z,22.3
2018-10-02T15:14:05.142Z,22.3
2018-10-02T15:16:04.908Z,22.3
2018-10-02T15:18:09.992Z,22.3
2018-10-02T15:20:10.289Z,22.3
2018-10-02T15:22:05.099Z,22.3
2018-10-02T15:24:07.462Z,22.3
2018-10-02T15:26:07.709Z,22.3
2018-10-02T15:28:18.036Z,22.3
2018-10-02T15:30:17.369Z,22.3
2018-10-02T15:32:07.597Z,22.3
2018-10-02T15:34:09.901Z,22.3
2018-10-02T15:36:05.642Z,22.3
2018-10-02T15:38:07.550Z,22.3
2018-10-02T15:40:04.862Z,22.2
2018-10-02T15:42:05.637Z,22.2
2018-10-02T15:44:05.273Z,22.2
2018-10-02T15:46:05.001Z,22.3
2018-10-02T15:48:04.758Z,22.2
2018-10-02T15:50:04.887Z,22.3
2018-10-02T15:52:04.808Z,22.3
2018-10-02T15:54:10.596Z,22.2
2018-10-02T15:56:07.374Z,22.2
2018-10-02T15:58:07.706Z,22.3
2018-10-02T16:00:05.109Z,22.3
2018-10-02T16:02:07.340Z,22.2
2018-10-02T16:04:10.179Z,22.2
2018-10-02T16:06:05.408Z,22.3
2018-10-02T16:08:05.072Z,22.2
2018-10-02T16:10:04.762Z,22.2
2018-10-02T16:14:32.389Z,22.2
2018-10-02T16:16:05.125Z,22.2
2018-10-02T16:18:12.938Z,22.3
2018-10-02T16:20:07.691Z,22.4
2018-10-02T16:22:04.992Z,22.3
2018-10-02T16:24:14.962Z,22.4
2018-10-02T16:26:04.728Z,22.4
2018-10-02T16:28:08.022Z,22.5
2018-10-02T16:30:04.792Z,22.5
2018-10-02T16:32:08.013Z,22.5
2018-10-02T16:34:04.669Z,22.5
2018-10-02T16:36:05.377Z,22.5
2018-10-02T16:38:08.109Z,22.5
2018-10-02T16:40:04.789Z,22.5
2018-10-02T16:42:13.128Z,22.5
2018-10-02T16:44:07.384Z,22.5
2018-10-02T16:46:05.100Z,22.5
2018-10-02T16:48:04.942Z,22.5
2018-10-02T16:50:17.813Z,22.6
2018-10-02T16:52:09.696Z,22.5
2018-10-02T16:54:05.409Z,22.5
2018-10-02T16:56:07.672Z,22.5
2018-10-02T16:58:05.358Z,22.5
2018-10-02T17:00:06.097Z,22.5
2018-10-02T17:02:04.770Z,22.5
2018-10-02T17:04:05.521Z,22.6
2018-10-02T17:06:05.633Z,22.6
2018-10-02T17:08:05.307Z,22.6
2018-10-02T17:10:04.975Z,22.6
2018-10-02T17:12:07.353Z,22.6
2018-10-02T17:14:07.675Z,22.6
2018-10-02T17:16:07.979Z,22.5
2018-10-02T17:18:06.638Z,22.5
2018-10-02T17:20:07.871Z,22.5
2018-10-02T17:22:05.638Z,22.5
2018-10-02T17:24:07.961Z,22.5
2018-10-02T17:26:09.733Z,22.4
2018-10-02T17:28:08.043Z,22.4
2018-10-02T17:30:04.966Z,22.4
2018-10-02T17:32:07.267Z,22.4
2018-10-02T17:34:04.988Z,22.4
2018-10-02T17:36:04.742Z,22.4
2018-10-02T17:38:08.944Z,22.4
2018-10-02T17:40:05.686Z,22.4
2018-10-02T17:42:05.590Z,22.4
2018-10-02T17:44:05.289Z,22.4
2018-10-02T17:46:05.033Z,22.4
2018-10-02T17:48:04.859Z,22.4
2018-10-02T17:50:10.282Z,22.4
2018-10-02T17:52:04.774Z,22.3
2018-10-02T17:54:05.551Z,22.4
2018-10-02T17:56:04.830Z,22.3
2018-10-02T17:58:05.586Z,22.4
2018-10-02T18:00:04.912Z,22.3
2018-10-02T18:02:08.117Z,22.3
2018-10-02T18:04:04.823Z,22.3
2018-10-02T18:06:05.008Z,22.4
2018-10-02T18:08:05.279Z,22.4
2018-10-02T18:10:05.010Z,22.3
2018-10-02T18:12:07.413Z,22.3
2018-10-02T18:14:05.256Z,22.3
2018-10-02T18:16:05.032Z,22.3
2018-10-02T18:18:10.082Z,22.3
2018-10-02T18:20:04.972Z,22.3
2018-10-02T18:22:04.728Z,22.3
2018-10-02T18:24:13.038Z,22.3
2018-10-02T18:26:04.749Z,22.3
2018-10-02T18:28:05.473Z,22.3
2018-10-02T18:30:05.182Z,22.3
2018-10-02T18:32:04.766Z,22.3
2018-10-02T18:34:05.460Z,22.3
2018-10-02T18:36:05.205Z,22.3
2018-10-02T18:38:07.456Z,22.3
2018-10-02T18:40:10.218Z,22.3
2018-10-02T18:42:04.932Z,22.3
2018-10-02T18:44:04.649Z,22.3
2018-10-02T18:46:08.015Z,22.3
2018-10-02T18:48:04.808Z,22.3
2018-10-02T18:50:05.778Z,22.3
2018-10-02T18:52:04.636Z,22.3
2018-10-02T18:54:08.130Z,22.3
2018-10-02T18:56:05.420Z,22.3
2018-10-02T18:58:05.460Z,22.3
2018-10-02T19:00:05.474Z,22.3
2018-10-02T19:02:05.206Z,22.3
2018-10-02T19:04:05.134Z,22.3
2018-10-02T19:06:04.829Z,22.3
2018-10-02T19:08:05.556Z,22.3
2018-10-02T19:10:05.261Z,22.3
2018-10-02T19:12:06.769Z,22.3
2018-10-02T19:14:05.503Z,22.3
2018-10-02T19:16:05.185Z,22.3
2018-10-02T19:18:10.207Z,22.2
2018-10-02T19:20:07.986Z,22.2
2018-10-02T19:22:07.176Z,22.3
2018-10-02T19:24:05.583Z,22.2
2018-10-02T19:26:04.947Z,22.3
2018-10-02T19:28:07.141Z,22.3
2018-10-02T19:30:04.865Z,22.2
2018-10-02T19:32:05.646Z,22.3
2018-10-02T19:34:05.445Z,22.3
2018-10-02T19:36:05.378Z,22.3
2018-10-02T19:38:05.213Z,22.3
2018-10-02T19:40:05.049Z,22.2
2018-10-02T19:42:04.774Z,22.2
2018-10-02T19:44:05.493Z,22.2
2018-10-02T19:46:12.855Z,22.2
2018-10-02T19:48:04.605Z,22.2
2018-10-02T19:50:05.306Z,22.3
2018-10-02T19:52:05.037Z,22.2
2018-10-02T19:54:06.364Z,22.2
2018-10-02T19:56:05.147Z,22.3
2018-10-02T19:58:04.865Z,22.3
2018-10-02T20:00:05.084Z,22.2
2018-10-02T20:02:04.893Z,22.2
2018-10-02T20:04:07.378Z,22.3
2018-10-02T20:06:10.403Z,22.2
2018-10-02T20:08:05.217Z,22.2
2018-10-02T20:10:05.359Z,22.2
2018-10-02T20:12:10.322Z,22.2
2018-10-02T20:14:08.022Z,22.2
2018-10-02T20:16:05.147Z,22.2
2018-10-02T20:18:07.702Z,22.2
2018-10-02T20:20:05.427Z,22.2
2018-10-02T20:22:05.184Z,22.2
2018-10-02T20:24:04.913Z,22.2
2018-10-02T20:26:05.633Z,22.2
2018-10-02T20:28:05.326Z,22.2
2018-10-02T20:30:04.986Z,22.2
2018-10-02T20:32:07.340Z,22.2
2018-10-02T20:34:07.545Z,22.2
2018-10-02T20:36:05.254Z,22.2
2018-10-02T20:38:10.045Z,22.2
2018-10-02T20:40:04.890Z,22.2
2018-10-02T20:42:05.625Z,22.2
2018-10-02T20:44:05.337Z,22.2
2018-10-02T20:46:05.036Z,22.2
2018-10-02T20:48:07.526Z,22.2
2018-10-02T20:50:05.270Z,22.2
2018-10-02T20:52:04.957Z,22.2
2018-10-02T20:54:04.685Z,22.2
2018-10-02T20:56:10.499Z,22.2
2018-10-02T20:58:17.829Z,22.2
2018-10-02T21:00:05.719Z,22.2
2018-10-02T21:02:04.661Z,22.2
2018-10-02T21:04:07.970Z,22.2
2018-10-02T21:06:05.283Z,22.2
2018-10-02T21:08:05.018Z,22.2
2018-10-02T21:10:06.001Z,22.2
2018-10-02T21:12:09.797Z,22.2
2018-10-02T21:14:05.551Z,22.2
2018-10-02T21:16:12.877Z,22.2
2018-10-02T21:18:04.858Z,22.1
2018-10-02T21:20:04.597Z,22.2
2018-10-02T21:22:07.187Z,22.2
2018-10-02T21:24:04.976Z,22.2
2018-10-02T21:26:09.822Z,22.2
2018-10-02T21:28:05.286Z,22.2
2018-10-02T21:30:04.977Z,22.2
2018-10-02T21:32:04.678Z,22.2
2018-10-02T21:34:10.008Z,22.2
2018-10-02T21:36:04.709Z,22.2
2018-10-02T21:38:05.459Z,22.2
2018-10-02T21:40:05.293Z,22.2
2018-10-02T21:42:05.601Z,22.2
2018-10-02T21:44:05.329Z,22.2
2018-10-02T21:46:12.788Z,22.2
2018-10-02T21:48:04.917Z,22.2
2018-10-02T21:50:04.684Z,22.2
2018-10-02T21:52:05.394Z,22.2
2018-10-02T21:54:07.659Z,22.2
2018-10-02T21:56:07.840Z,22.2
2018-10-02T21:58:10.616Z,22.2
2018-10-02T22:00:07.892Z,22.2
2018-10-02T22:02:05.601Z,22.2
2018-10-02T22:04:04.821Z,22.2
2018-10-02T22:06:08.119Z,22.2
2018-10-02T22:08:04.826Z,22.2
2018-10-02T22:10:10.647Z,22.2
2018-10-02T22:12:07.891Z,22.2
2018-10-02T22:14:10.187Z,22.2
2018-10-02T22:16:04.922Z,22.2
2018-10-02T22:18:04.852Z,22.2
2018-10-02T22:20:05.564Z,22.2
2018-10-02T22:22:05.243Z,22.2
2018-10-02T22:24:07.587Z,22.2
2018-10-02T22:26:04.734Z,22.2
2018-10-02T22:28:10.499Z,22.2
2018-10-02T22:30:05.197Z,22.2
2018-10-02T22:32:15.355Z,22.2
2018-10-02T22:34:05.093Z,22.2
2018-10-02T22:36:07.380Z,22.2
2018-10-02T22:38:12.699Z,22.2
2018-10-02T22:40:05.649Z,22.2
2018-10-02T22:42:05.506Z,22.2
2018-10-02T22:44:10.200Z,22.2
2018-10-02T22:46:07.459Z,22.2
2018-10-02T22:48:05.221Z,22.2
2018-10-02T22:50:07.467Z,22.2
2018-10-02T22:52:05.493Z,22.2
2018-10-02T22:54:05.241Z,22.2
2018-10-02T22:56:10.008Z,22.2
2018-10-02T22:58:07.253Z,22.2
2018-10-02T23:00:04.939Z,22.1
2018-10-02T23:02:07.334Z,22.2
2018-10-02T23:04:05.075Z,22.2
2018-10-02T23:06:04.824Z,22.2
2018-10-02T23:08:05.072Z,22.2
2018-10-02T23:10:04.768Z,22.2
2018-10-02T23:12:05.473Z,22.2
2018-10-02T23:14:05.172Z,22.2
2018-10-02T23:16:05.395Z,22.2
2018-10-02T23:18:05.300Z,22.2
2018-10-02T23:20:04.977Z,22.1
2018-10-02T23:22:07.335Z,22.2
2018-10-02T23:24:05.101Z,22.1
2018-10-02T23:26:04.793Z,22.1
2018-10-02T23:28:05.494Z,22.1
2018-10-02T23:30:04.721Z,22.2
2018-10-02T23:32:05.421Z,22.1
2018-10-02T23:34:05.121Z,22.1
2018-10-02T23:36:07.398Z,22.1
2018-10-02T23:38:05.173Z,22.1
2018-10-02T23:40:04.886Z,22.2
2018-10-02T23:42:05.665Z,22.2
2018-10-02T23:44:05.454Z,22.1
2018-10-02T23:46:05.173Z,22.2
2018-10-02T23:48:07.438Z,22.1
2018-10-02T23:50:05.150Z,22.1
2018-10-02T23:52:04.898Z,22.2
2018-10-02T23:54:05.116Z,22.2
2018-10-02T23:56:17.997Z,22.2
2018-10-02T23:58:04.772Z,22.2
